Weather at Landers Ranch Airport

Public forecast

Using degrees Fahrenheit for public forecast. Weather courtesy of forecast.io.

Closest aviation weather report (METAR) to Landers Ranch Airport

Closest report is Avenger Field, 16.8 nm (31.2 km) NE. Retrieved 2021/07/24 22:15 UTC (17 minutes ago):

KSWW 242215Z AUTO 18007KT 10SM CLR 37/17 A3003 RMK AO2 T03720171

Closest aviation forecast (TAF) to Landers Ranch Airport

Closest forecast is Dyess Air Force Base, 44.7 nm (82.8 km) E. Retrieved 2021/07/24 22:27 UTC (5 minutes ago):

TAF TAF KDYS 242219Z 2422/2602 17012KT 9999 SCT120 QNH2993INS BECMG 2423/2500 18012KT 9999 SKC QNH2989INS TEMPO 2510/2518 20012KT TX37/2520Z TN23/2512Z LAST NO AMDS AFT 2422 NEXT 2515